Time;durP1;ratioP1;P1;durP2;ratioP2;P2;SDS_P1;SDS_P2;PMS_P1;PMS_P2;Temp;Humidity;BMP_temperature;BMP_pressure;BME280_temperature;BME280_humidity;BME280_pressure;Samples;Min_cycle;Max_cycle;Signal;HPM_P1;HPM_P2
2022/10/14 00:00:29;;;;;;;22.20;17.67;;;13.50;99.90;;;;;;10391758;28;20631;-74
2022/10/14 00:05:30;;;;;;;21.33;16.43;;;13.50;99.90;;;;;;10435565;28;20225;-74
2022/10/14 00:10:30;;;;;;;23.40;16.73;;;13.50;99.90;;;;;;10397806;28;20213;-74
2022/10/14 00:15:38;;;;;;;20.40;16.93;;;13.50;99.90;;;;;;10395751;28;20275;-74
2022/10/14 00:20:39;;;;;;;22.87;17.80;;;13.50;99.90;;;;;;10389671;28;20217;-75
2022/10/14 00:25:39;;;;;;;29.27;17.90;;;13.60;99.90;;;;;;10395621;28;20629;-74
2022/10/14 00:30:40;;;;;;;25.27;18.07;;;13.50;99.90;;;;;;10389200;28;20217;-74
2022/10/14 00:35:41;;;;;;;22.90;18.10;;;13.50;99.90;;;;;;10388689;28;20254;-75
2022/10/14 00:40:41;;;;;;;20.37;17.07;;;13.50;99.90;;;;;;10395954;28;20273;-75
2022/10/14 00:45:42;;;;;;;20.60;16.87;;;13.50;99.90;;;;;;10386446;28;20232;-75
2022/10/14 00:50:46;;;;;;;19.80;17.63;;;13.50;99.90;;;;;;10396803;28;20308;-75
2022/10/14 00:55:47;;;;;;;20.80;16.23;;;13.50;99.90;;;;;;10396256;28;20239;-75
2022/10/14 01:00:47;;;;;;;22.17;18.00;;;13.50;99.90;;;;;;10388098;28;20217;-75
2022/10/14 01:06:00;;;;;;;18.40;16.30;;;13.50;99.90;;;;;;10385658;28;20229;-75
2022/10/14 01:11:14;;;;;;;21.17;16.27;;;13.50;99.90;;;;;;10395789;28;20735;-75
2022/10/14 01:16:19;;;;;;;17.70;15.67;;;13.50;99.90;;;;;;10399162;28;20307;-75
2022/10/14 01:21:46;;;;;;;20.93;15.83;;;13.50;99.90;;;;;;10389380;28;20221;-74
2022/10/14 01:27:05;;;;;;;21.60;16.97;;;13.50;99.90;;;;;;10386832;28;20261;-74
2022/10/14 01:32:12;;;;;;;18.20;15.10;;;13.50;99.90;;;;;;10422988;28;20297;-75
2022/10/14 01:37:20;;;;;;;16.83;14.93;;;13.50;99.90;;;;;;10412893;28;20246;-75
2022/10/14 01:42:29;;;;;;;17.73;15.93;;;13.50;99.90;;;;;;10391648;28;20726;-75
2022/10/14 01:47:31;;;;;;;17.97;14.70;;;13.50;99.90;;;;;;10392067;28;20228;-74
2022/10/14 01:52:36;;;;;;;20.37;15.40;;;13.50;99.90;;;;;;10386007;28;20247;-74
2022/10/14 01:57:40;;;;;;;18.23;14.97;;;13.50;99.90;;;;;;10396684;28;20236;-75
2022/10/14 02:02:40;;;;;;;16.33;13.60;;;13.50;99.90;;;;;;10399411;28;20237;-75
2022/10/14 02:07:48;;;;;;;18.90;14.77;;;13.60;99.90;;;;;;10413609;28;20224;-75
2022/10/14 02:12:52;;;;;;;21.13;14.37;;;13.60;99.90;;;;;;10403226;28;20287;-74
2022/10/14 02:17:59;;;;;;;15.17;13.50;;;13.60;99.90;;;;;;10391048;28;20235;-75
2022/10/14 02:23:18;;;;;;;18.97;13.80;;;13.60;99.90;;;;;;10385078;28;20221;-75
2022/10/14 02:28:23;;;;;;;21.13;14.20;;;13.60;99.90;;;;;;10387850;28;20259;-74
2022/10/14 02:33:32;;;;;;;22.10;15.23;;;13.60;99.90;;;;;;10388625;28;20232;-75
2022/10/14 02:38:33;;;;;;;19.00;14.23;;;13.50;99.90;;;;;;10385808;28;20287;-76
2022/10/14 02:43:33;;;;;;;22.30;15.73;;;13.50;99.90;;;;;;10388929;28;20282;-75
2022/10/14 02:48:34;;;;;;;18.80;14.47;;;13.50;99.90;;;;;;10383611;28;20228;-75
2022/10/14 02:53:34;;;;;;;17.03;13.97;;;13.40;99.90;;;;;;10388574;28;20235;-75
2022/10/14 02:58:35;;;;;;;16.20;13.47;;;13.40;99.90;;;;;;10382897;28;20252;-75
2022/10/14 03:03:35;;;;;;;19.10;14.33;;;13.40;99.90;;;;;;10389299;28;20733;-75
2022/10/14 03:08:36;;;;;;;19.20;12.97;;;13.40;99.90;;;;;;10387885;28;20232;-75
2022/10/14 03:13:36;;;;;;;17.97;13.47;;;13.40;99.90;;;;;;10381947;28;20727;-75
2022/10/14 03:18:37;;;;;;;17.47;13.27;;;13.40;99.90;;;;;;10390261;28;20231;-74
2022/10/14 03:23:38;;;;;;;14.50;12.83;;;13.40;99.90;;;;;;10388394;28;20235;-75
2022/10/14 03:28:38;;;;;;;16.87;12.77;;;13.40;99.90;;;;;;10389760;28;20239;-75
2022/10/14 03:33:39;;;;;;;16.53;12.17;;;13.40;99.90;;;;;;10382434;28;20229;-75
2022/10/14 03:38:39;;;;;;;14.73;11.47;;;13.50;99.90;;;;;;10389054;28;20315;-76
2022/10/14 03:43:40;;;;;;;15.43;11.13;;;13.40;99.90;;;;;;10388188;28;20228;-75
2022/10/14 03:48:40;;;;;;;13.90;11.90;;;13.50;99.90;;;;;;10391600;28;20224;-74
2022/10/14 03:53:41;;;;;;;15.67;11.93;;;13.40;99.90;;;;;;10387955;28;20248;-74
2022/10/14 03:58:41;;;;;;;18.70;12.90;;;13.50;99.90;;;;;;10400571;28;20255;-75
2022/10/14 04:03:45;;;;;;;21.47;13.20;;;13.50;99.90;;;;;;10395897;28;20232;-75
2022/10/14 04:08:45;;;;;;;20.57;12.20;;;13.40;99.90;;;;;;10381979;28;20243;-74
2022/10/14 04:13:46;;;;;;;17.87;14.57;;;13.40;99.90;;;;;;10389664;28;20236;-74
2022/10/14 04:18:47;;;;;;;19.27;14.13;;;13.40;99.90;;;;;;10380527;28;20225;-74
2022/10/14 04:23:47;;;;;;;24.07;14.20;;;13.30;99.90;;;;;;10387386;28;20225;-73
2022/10/14 04:28:48;;;;;;;18.87;13.97;;;13.40;99.90;;;;;;10388606;28;20254;-74
2022/10/14 04:33:48;;;;;;;17.07;13.67;;;13.40;99.90;;;;;;10395663;28;20221;-74
2022/10/14 04:38:49;;;;;;;17.87;13.33;;;13.40;99.90;;;;;;10395707;28;20235;-75
2022/10/14 04:43:53;;;;;;;16.20;13.30;;;13.40;99.90;;;;;;10393737;28;20263;-75
2022/10/14 04:48:56;;;;;;;16.20;13.83;;;13.40;99.90;;;;;;10388615;28;20607;-75
2022/10/14 04:53:56;;;;;;;17.97;12.90;;;13.40;99.90;;;;;;10392751;28;20695;-75
2022/10/14 04:58:57;;;;;;;14.53;12.93;;;13.40;99.90;;;;;;10387399;28;20225;-74
2022/10/14 05:03:58;;;;;;;18.50;12.90;;;13.40;99.90;;;;;;10391795;28;20228;-75
2022/10/14 05:08:59;;;;;;;16.53;12.70;;;13.40;99.90;;;;;;10388696;28;20229;-74
2022/10/14 05:13:59;;;;;;;18.40;12.80;;;13.40;99.90;;;;;;10390456;28;20231;-75
2022/10/14 05:19:00;;;;;;;15.70;11.80;;;13.40;99.90;;;;;;10391578;28;20713;-75
2022/10/14 05:24:00;;;;;;;13.03;11.27;;;13.40;99.90;;;;;;10395188;28;20221;-75
2022/10/14 05:29:01;;;;;;;20.17;12.33;;;13.40;99.90;;;;;;10392343;28;20315;-75
2022/10/14 05:34:05;;;;;;;18.93;11.80;;;13.40;99.90;;;;;;10391756;28;20284;-74
2022/10/14 05:39:07;;;;;;;18.87;12.60;;;13.40;99.90;;;;;;10387525;28;20228;-74
2022/10/14 05:44:12;;;;;;;17.07;12.30;;;13.40;99.90;;;;;;10384354;28;20228;-74
2022/10/14 05:49:13;;;;;;;19.37;12.97;;;13.50;99.90;;;;;;10389000;28;20603;-76
2022/10/14 05:54:13;;;;;;;15.80;12.50;;;13.50;99.90;;;;;;10431321;28;20224;-75
2022/10/14 05:59:14;;;;;;;18.60;12.77;;;13.50;99.90;;;;;;10410545;28;20212;-75
2022/10/14 06:04:19;;;;;;;16.47;12.63;;;13.50;99.90;;;;;;10396553;28;20244;-75
2022/10/14 06:09:20;;;;;;;22.63;12.87;;;13.50;99.90;;;;;;10387156;28;20711;-75
2022/10/14 06:14:20;;;;;;;18.33;13.40;;;13.60;99.90;;;;;;10383961;28;20315;-75
2022/10/14 06:19:21;;;;;;;19.80;14.00;;;13.60;99.90;;;;;;10386679;28;20229;-74
2022/10/14 06:24:21;;;;;;;17.47;14.03;;;13.60;99.90;;;;;;10387818;28;20953;-75
2022/10/14 06:29:25;;;;;;;22.20;15.73;;;13.60;99.90;;;;;;10386503;28;20233;-74
2022/10/14 06:34:25;;;;;;;21.57;16.80;;;13.70;99.90;;;;;;10388794;28;20289;-75
2022/10/14 06:39:26;;;;;;;19.83;16.77;;;13.90;99.90;;;;;;10384933;28;20232;-75
2022/10/14 06:44:26;;;;;;;22.70;16.57;;;14.00;99.90;;;;;;10386904;28;20227;-75
2022/10/14 06:49:27;;;;;;;21.13;17.17;;;14.10;99.90;;;;;;10386494;28;20225;-76
2022/10/14 06:54:28;;;;;;;19.40;15.43;;;14.20;99.90;;;;;;10389651;28;20219;-76
2022/10/14 06:59:28;;;;;;;16.93;15.13;;;14.20;99.90;;;;;;10385636;28;20268;-75
2022/10/14 07:04:29;;;;;;;17.33;14.73;;;14.30;99.90;;;;;;10387843;28;20228;-74
2022/10/14 07:09:31;;;;;;;19.50;14.67;;;14.20;99.90;;;;;;10391377;28;20208;-76
2022/10/14 07:14:31;;;;;;;20.73;15.50;;;14.20;99.90;;;;;;10392645;28;20233;-74
2022/10/14 07:19:32;;;;;;;18.77;14.77;;;14.20;99.90;;;;;;10382396;28;20799;-76
2022/10/14 07:24:33;;;;;;;21.70;15.27;;;14.20;99.90;;;;;;10381953;28;20680;-76
2022/10/14 07:29:34;;;;;;;18.97;14.70;;;14.40;99.90;;;;;;10382317;28;20217;-75
2022/10/14 07:34:35;;;;;;;19.30;15.13;;;14.50;99.90;;;;;;10387528;28;20227;-76
2022/10/14 07:39:36;;;;;;;17.93;14.00;;;14.60;99.90;;;;;;10382231;28;20216;-76
2022/10/14 07:44:38;;;;;;;23.93;14.43;;;14.70;99.90;;;;;;10380511;28;20278;-76
2022/10/14 07:49:39;;;;;;;17.37;13.70;;;14.60;99.90;;;;;;10388026;28;20224;-75
2022/10/14 07:54:39;;;;;;;17.97;12.90;;;14.60;99.90;;;;;;10392762;28;20240;-76
2022/10/14 07:59:40;;;;;;;17.07;13.00;;;14.70;99.90;;;;;;10405284;28;20254;-76
2022/10/14 08:04:51;;;;;;;17.73;12.40;;;14.80;99.90;;;;;;10405180;28;20224;-76
2022/10/14 08:09:52;;;;;;;13.70;10.60;;;14.90;99.90;;;;;;10391544;28;20221;-76
2022/10/14 08:14:56;;;;;;;15.60;9.73;;;15.00;99.90;;;;;;10397660;28;20235;-76
2022/10/14 08:19:58;;;;;;;16.33;9.50;;;15.10;99.90;;;;;;10395677;28;20236;-76
2022/10/14 08:24:59;;;;;;;15.40;9.13;;;15.40;99.90;;;;;;10390580;28;20229;-74
2022/10/14 08:29:59;;;;;;;11.93;8.43;;;15.70;99.90;;;;;;10392962;28;20237;-75
2022/10/14 08:35:00;;;;;;;13.10;9.00;;;15.80;99.90;;;;;;10391134;28;20304;-76
2022/10/14 08:40:01;;;;;;;15.57;8.40;;;15.70;99.90;;;;;;10393736;28;20311;-74
2022/10/14 08:45:14;;;;;;;13.00;8.50;;;15.60;99.90;;;;;;10389786;28;20252;-75
2022/10/14 08:50:40;;;;;;;8.90;7.80;;;15.60;99.90;;;;;;10389844;28;20216;-74
2022/10/14 08:55:43;;;;;;;12.17;8.03;;;15.70;99.90;;;;;;10395868;28;20333;-74
2022/10/14 09:00:48;;;;;;;13.73;8.70;;;15.60;99.90;;;;;;10386720;28;20220;-74
2022/10/14 09:05:58;;;;;;;11.43;8.53;;;15.60;99.90;;;;;;10391515;28;20247;-75
2022/10/14 09:10:59;;;;;;;13.57;9.00;;;15.60;99.90;;;;;;10391322;28;20224;-75
2022/10/14 09:16:17;;;;;;;9.70;7.53;;;15.50;99.90;;;;;;10396169;28;20209;-75
2022/10/14 09:21:28;;;;;;;9.20;7.50;;;15.70;99.90;;;;;;10386051;28;20610;-75
2022/10/14 09:26:40;;;;;;;11.37;7.20;;;15.90;99.90;;;;;;10392390;28;20248;-75
2022/10/14 09:31:44;;;;;;;11.10;7.20;;;16.20;99.90;;;;;;10392468;28;20239;-75
2022/10/14 09:36:48;;;;;;;10.23;6.70;;;16.30;99.90;;;;;;10393995;28;20251;-75
2022/10/14 09:41:52;;;;;;;11.67;7.43;;;16.40;99.90;;;;;;10401051;28;20703;-75
2022/10/14 09:47:04;;;;;;;13.07;7.37;;;16.20;99.90;;;;;;10391601;28;20320;-75
2022/10/14 09:52:07;;;;;;;8.30;6.43;;;16.20;99.90;;;;;;10397593;28;20244;-76
2022/10/14 09:57:16;;;;;;;11.90;6.33;;;16.40;99.90;;;;;;10396207;28;20224;-75
2022/10/14 10:02:31;;;;;;;7.90;5.97;;;16.60;99.90;;;;;;10396189;28;20225;-75
2022/10/14 10:07:33;;;;;;;8.10;5.20;;;17.10;99.90;;;;;;10387611;28;20359;-75
2022/10/14 10:12:34;;;;;;;8.07;5.00;;;18.20;99.90;;;;;;10393691;28;20217;-75
2022/10/14 10:17:39;;;;;;;6.23;4.87;;;18.90;99.90;;;;;;10391206;28;20228;-76
2022/10/14 10:22:40;;;;;;;8.23;4.47;;;19.10;99.90;;;;;;10385609;28;20300;-75
2022/10/14 10:27:44;;;;;;;11.40;4.70;;;19.00;99.90;;;;;;10391641;28;20235;-75
2022/10/14 10:33:06;;;;;;;9.63;4.27;;;19.00;99.90;;;;;;10383507;28;20224;-76
2022/10/14 10:38:17;;;;;;;8.20;4.30;;;18.90;99.90;;;;;;10388378;28;20220;-76
2022/10/14 10:43:38;;;;;;;6.67;3.97;;;18.60;99.90;;;;;;10386837;28;20775;-76
2022/10/14 10:49:16;;;;;;;8.90;4.57;;;18.20;99.90;;;;;;10390103;28;20239;-75
2022/10/14 10:54:30;;;;;;;8.67;4.60;;;18.00;99.90;;;;;;10368737;28;20755;-75
2022/10/14 10:59:51;;;;;;;5.90;4.50;;;17.60;99.90;;;;;;10383911;28;20670;-75
2022/10/14 11:05:22;;;;;;;7.77;4.63;;;17.40;99.90;;;;;;10383706;28;20234;-76
2022/10/14 11:16:27;;;;;;;5.33;4.17;;;17.10;99.90;;;;;;10391061;28;20212;-75
2022/10/14 11:21:58;;;;;;;9.27;4.40;;;17.20;99.90;;;;;;10390071;28;20216;-75
2022/10/14 11:27:41;;;;;;;6.27;4.27;;;17.20;99.90;;;;;;10385434;28;20253;-75
2022/10/14 11:32:57;;;;;;;8.67;4.87;;;17.30;99.90;;;;;;10380967;28;20225;-75
2022/10/14 11:38:14;;;;;;;7.17;4.77;;;17.40;99.90;;;;;;10385251;28;20266;-75
2022/10/14 11:43:25;;;;;;;13.77;5.87;;;17.20;99.90;;;;;;10391068;28;20300;-75
2022/10/14 11:48:38;;;;;;;7.80;5.37;;;17.10;99.90;;;;;;10385261;28;20338;-75
2022/10/14 11:53:48;;;;;;;8.53;5.00;;;17.00;99.90;;;;;;10395490;28;20216;-75
2022/10/14 11:58:51;;;;;;;6.57;4.90;;;16.90;99.90;;;;;;10382313;28;20245;-75
2022/10/14 12:04:09;;;;;;;7.63;4.73;;;16.90;99.90;;;;;;10391141;28;20224;-74
2022/10/14 12:09:37;;;;;;;7.87;4.70;;;16.80;99.90;;;;;;10389306;28;20244;-75
2022/10/14 12:15:00;;;;;;;8.10;4.80;;;16.70;99.90;;;;;;10383104;28;20233;-75
2022/10/14 12:20:33;;;;;;;7.07;4.67;;;16.70;99.90;;;;;;10389028;28;20289;-75
2022/10/14 12:25:53;;;;;;;8.60;4.70;;;16.70;99.90;;;;;;10382613;28;20237;-76
2022/10/14 12:31:20;;;;;;;6.43;4.60;;;16.40;99.90;;;;;;10381112;28;20232;-75
2022/10/14 12:36:30;;;;;;;6.73;4.57;;;16.20;99.90;;;;;;10387991;28;20311;-75
2022/10/14 12:41:35;;;;;;;7.60;4.67;;;16.00;99.90;;;;;;10384517;28;20221;-75
2022/10/14 12:46:43;;;;;;;10.27;5.27;;;15.80;99.90;;;;;;10393010;28;20642;-75
2022/10/14 12:51:54;;;;;;;5.87;5.27;;;15.80;99.90;;;;;;10387885;28;20648;-75
2022/10/14 12:57:19;;;;;;;9.50;5.07;;;15.70;99.90;;;;;;10389990;28;20228;-74
2022/10/14 13:02:32;;;;;;;6.90;5.27;;;15.60;99.90;;;;;;10390334;28;20622;-74
2022/10/14 13:07:45;;;;;;;8.67;5.03;;;15.80;99.90;;;;;;10393845;28;20231;-74
2022/10/14 13:12:46;;;;;;;8.77;4.97;;;15.90;99.90;;;;;;10386046;28;20622;-74
2022/10/14 13:17:49;;;;;;;7.17;5.07;;;16.10;99.90;;;;;;10397609;28;20221;-75
2022/10/14 13:22:51;;;;;;;7.43;5.10;;;16.10;99.90;;;;;;10395184;28;20245;-75
2022/10/14 13:28:15;;;;;;;8.03;5.10;;;16.10;99.90;;;;;;10392555;28;20232;-75
2022/10/14 13:33:38;;;;;;;7.50;4.83;;;16.00;99.90;;;;;;10386357;28;20233;-75
2022/10/14 13:38:43;;;;;;;8.07;5.37;;;16.00;99.90;;;;;;10393739;28;20271;-76
2022/10/14 13:43:45;;;;;;;10.50;6.20;;;16.20;99.90;;;;;;10393919;28;20221;-74
2022/10/14 13:48:49;;;;;;;7.83;5.63;;;16.20;99.90;;;;;;10384298;28;20295;-75
2022/10/14 13:53:56;;;;;;;9.60;6.60;;;16.00;99.90;;;;;;10384880;28;20704;-75
2022/10/14 13:58:57;;;;;;;7.23;6.37;;;15.90;99.90;;;;;;10395063;28;20216;-75
2022/10/14 14:03:59;;;;;;;11.90;7.23;;;15.80;99.90;;;;;;10399726;28;20290;-75
2022/10/14 14:09:04;;;;;;;11.53;7.37;;;15.60;99.90;;;;;;10387778;28;20239;-75
2022/10/14 14:14:17;;;;;;;10.27;7.57;;;15.60;99.90;;;;;;10390055;28;20258;-76
2022/10/14 14:19:27;;;;;;;11.73;7.67;;;15.70;99.90;;;;;;10395952;28;20225;-75
2022/10/14 14:24:28;;;;;;;11.00;7.00;;;15.70;99.90;;;;;;10390334;28;20348;-75
2022/10/14 14:29:31;;;;;;;12.00;6.50;;;15.90;99.90;;;;;;10387728;28;20351;-75
2022/10/14 14:34:37;;;;;;;9.90;6.33;;;16.20;99.90;;;;;;10389857;28;20228;-75
2022/10/14 14:39:37;;;;;;;8.00;5.57;;;16.20;99.90;;;;;;10385324;28;20754;-75
2022/10/14 14:44:38;;;;;;;10.30;5.67;;;16.20;99.90;;;;;;10390749;28;20347;-75
2022/10/14 14:49:39;;;;;;;9.17;6.03;;;16.20;99.90;;;;;;10384383;28;20231;-75
2022/10/14 14:54:44;;;;;;;6.93;5.77;;;16.30;99.90;;;;;;10389262;28;20251;-75
2022/10/14 15:00:06;;;;;;;11.47;6.13;;;16.20;99.90;;;;;;10383967;28;20914;-74
2022/10/14 15:05:09;;;;;;;7.77;5.90;;;16.20;99.90;;;;;;10390818;28;20612;-75
2022/10/14 15:10:21;;;;;;;10.60;5.97;;;16.20;99.90;;;;;;10386315;28;20686;-75
2022/10/14 15:15:32;;;;;;;8.53;6.23;;;16.20;99.90;;;;;;10385439;28;20280;-75
2022/10/14 15:20:35;;;;;;;6.60;5.93;;;16.10;99.90;;;;;;10403065;28;20228;-74
2022/10/14 15:25:36;;;;;;;8.27;6.07;;;16.00;99.90;;;;;;10383304;28;20236;-76
2022/10/14 15:30:39;;;;;;;7.70;5.90;;;16.00;99.90;;;;;;10388361;28;20227;-75
2022/10/14 15:35:40;;;;;;;8.27;6.50;;;16.00;99.90;;;;;;10388921;28;20208;-75
2022/10/14 15:40:41;;;;;;;10.43;6.37;;;16.00;99.90;;;;;;10390777;28;20294;-75
2022/10/14 15:45:43;;;;;;;8.53;6.87;;;15.90;99.90;;;;;;10380306;28;20259;-75
2022/10/14 15:50:46;;;;;;;9.13;6.67;;;15.80;99.90;;;;;;10397210;28;20278;-74
2022/10/14 15:55:46;;;;;;;7.93;6.17;;;15.70;99.90;;;;;;10399104;28;20219;-75
2022/10/14 16:00:51;;;;;;;7.53;6.00;;;15.70;99.90;;;;;;10401281;28;20603;-74
2022/10/14 16:05:52;;;;;;;8.83;6.87;;;15.60;99.90;;;;;;10397731;28;20264;-73
2022/10/14 16:10:53;;;;;;;8.67;7.50;;;15.60;99.90;;;;;;10396900;28;20228;-75
2022/10/14 16:16:07;;;;;;;11.40;7.37;;;15.50;99.90;;;;;;10405047;28;20220;-75
2022/10/14 16:21:14;;;;;;;9.73;7.77;;;15.50;99.90;;;;;;10409965;28;20232;-75
2022/10/14 16:26:14;;;;;;;10.80;8.60;;;15.40;99.90;;;;;;10425912;28;20227;-75
2022/10/14 16:31:15;;;;;;;11.13;8.47;;;15.30;99.90;;;;;;10426764;28;20304;-75
2022/10/14 16:36:16;;;;;;;11.60;9.30;;;15.30;99.90;;;;;;10398656;28;20235;-74
2022/10/14 16:41:17;;;;;;;12.50;9.90;;;15.20;99.90;;;;;;10402886;28;20204;-74
2022/10/14 16:46:18;;;;;;;12.93;9.73;;;15.20;99.90;;;;;;10394498;28;20255;-75
2022/10/14 16:51:18;;;;;;;11.33;9.20;;;15.20;99.90;;;;;;10409524;28;20220;-74
2022/10/14 17:01:39;;;;;;;11.93;9.20;;;15.20;99.90;;;;;;10410887;28;20216;-75
2022/10/14 17:06:40;;;;;;;11.67;9.60;;;15.20;99.90;;;;;;10401591;28;20227;-74
2022/10/14 17:11:43;;;;;;;14.90;9.77;;;15.20;99.90;;;;;;10387636;28;20227;-76
2022/10/14 17:16:45;;;;;;;11.40;10.20;;;15.20;99.90;;;;;;10407588;28;20598;-76
2022/10/14 17:21:47;;;;;;;14.37;10.20;;;15.20;99.90;;;;;;10402892;28;20263;-77
2022/10/14 17:26:48;;;;;;;10.63;9.27;;;15.10;99.90;;;;;;10402336;28;20730;-75
2022/10/14 17:31:49;;;;;;;11.20;9.60;;;15.10;99.90;;;;;;10408222;28;20220;-75
2022/10/14 17:36:49;;;;;;;11.60;10.23;;;15.20;99.90;;;;;;10395966;28;20255;-76
2022/10/14 17:41:51;;;;;;;12.03;10.30;;;15.20;99.90;;;;;;10392285;28;20232;-74
2022/10/14 17:46:52;;;;;;;12.13;10.37;;;15.20;99.90;;;;;;10401821;28;20227;-76
2022/10/14 17:51:52;;;;;;;13.30;10.93;;;15.20;99.90;;;;;;10401166;28;20224;-75
2022/10/14 17:56:53;;;;;;;10.60;9.20;;;15.20;99.90;;;;;;10391263;28;20216;-76
2022/10/14 18:01:53;;;;;;;10.10;9.00;;;15.20;99.90;;;;;;10405947;28;20215;-75
2022/10/14 18:06:54;;;;;;;11.90;10.30;;;15.20;99.90;;;;;;10407896;28;20228;-75
2022/10/14 18:11:56;;;;;;;9.93;8.90;;;15.10;99.90;;;;;;10391154;28;20452;-76
2022/10/14 18:16:58;;;;;;;12.00;8.17;;;15.20;99.90;;;;;;10399541;28;20267;-77
2022/10/14 18:22:01;;;;;;;8.90;7.70;;;15.10;99.90;;;;;;10397732;28;20220;-78
2022/10/14 18:27:02;;;;;;;9.60;6.73;;;15.20;99.90;;;;;;10407092;28;20231;-73
2022/10/14 18:32:04;;;;;;;9.37;6.47;;;15.20;99.90;;;;;;10404404;28;20234;-76
2022/10/14 18:37:04;;;;;;;7.70;5.80;;;15.10;99.90;;;;;;10404744;28;20228;-75
2022/10/14 18:42:05;;;;;;;7.77;5.23;;;15.10;99.90;;;;;;10407173;28;20223;-76
2022/10/14 18:47:06;;;;;;;8.37;6.47;;;15.10;99.90;;;;;;10406080;28;20677;-76
2022/10/14 18:52:07;;;;;;;9.23;6.07;;;15.10;99.90;;;;;;10400121;28;20327;-77
2022/10/14 18:57:08;;;;;;;7.27;6.30;;;15.10;99.90;;;;;;10396293;28;20227;-76
2022/10/14 19:02:12;;;;;;;11.23;6.83;;;15.10;99.90;;;;;;10393971;28;20832;-76
2022/10/14 19:07:13;;;;;;;11.57;7.43;;;15.10;99.90;;;;;;10392683;28;20331;-76
2022/10/14 19:17:34;;;;;;;12.17;8.77;;;15.10;99.90;;;;;;10392525;28;20219;-74
2022/10/14 19:22:39;;;;;;;10.83;9.50;;;15.10;99.90;;;;;;10404016;28;20228;-74
2022/10/14 19:27:40;;;;;;;9.07;8.10;;;15.10;99.90;;;;;;10397921;28;20244;-73
2022/10/14 19:32:40;;;;;;;9.67;8.10;;;15.10;99.90;;;;;;10403300;28;20224;-75
2022/10/14 19:37:41;;;;;;;9.67;7.60;;;15.10;99.90;;;;;;10408812;28;20700;-75
2022/10/14 19:42:41;;;;;;;8.40;6.60;;;15.10;99.90;;;;;;10391666;28;20281;-75
2022/10/14 19:47:42;;;;;;;7.53;6.27;;;15.10;99.90;;;;;;10390091;28;20232;-74
2022/10/14 19:52:42;;;;;;;7.67;6.00;;;15.00;99.90;;;;;;10406062;28;20261;-78
2022/10/14 19:57:43;;;;;;;6.13;4.60;;;15.00;99.90;;;;;;10401479;28;20226;-76
2022/10/14 20:02:44;;;;;;;5.17;4.57;;;14.90;99.90;;;;;;10400957;28;20231;-75
2022/10/14 20:07:45;;;;;;;7.47;4.77;;;14.90;99.90;;;;;;10404269;28;20239;-74
2022/10/14 20:12:45;;;;;;;6.17;3.90;;;14.80;99.90;;;;;;10403361;28;20576;-75
2022/10/14 20:17:49;;;;;;;8.10;4.73;;;14.80;99.90;;;;;;10389460;28;20310;-77
2022/10/14 20:22:49;;;;;;;5.93;4.03;;;14.70;99.90;;;;;;10398014;28;20220;-76
2022/10/14 20:27:50;;;;;;;5.07;3.83;;;14.70;99.90;;;;;;10389163;28;20232;-76
2022/10/14 20:32:52;;;;;;;6.57;4.43;;;14.60;99.90;;;;;;10402544;28;20231;-75
2022/10/14 20:37:53;;;;;;;6.93;4.73;;;14.60;99.90;;;;;;10397408;28;20310;-74
2022/10/14 20:42:53;;;;;;;7.63;5.27;;;14.60;99.90;;;;;;10398104;28;20318;-74
2022/10/14 20:47:54;;;;;;;8.80;6.00;;;14.60;99.90;;;;;;10389016;28;20246;-75
2022/10/14 20:52:54;;;;;;;9.20;6.70;;;14.60;99.90;;;;;;10401708;28;20235;-75
2022/10/14 20:57:55;;;;;;;9.93;6.63;;;14.60;99.90;;;;;;10396409;28;20296;-74
2022/10/14 21:02:55;;;;;;;8.50;7.03;;;14.70;99.90;;;;;;10395583;28;20687;-76
2022/10/14 21:07:56;;;;;;;9.67;6.60;;;14.60;99.90;;;;;;10387402;28;20714;-75
2022/10/14 21:12:57;;;;;;;7.50;5.97;;;14.60;99.90;;;;;;10409617;28;20623;-75
2022/10/14 21:17:57;;;;;;;7.23;6.43;;;14.60;99.90;;;;;;10388218;28;20228;-76
2022/10/14 21:22:58;;;;;;;7.23;5.70;;;14.60;99.90;;;;;;10396187;28;20265;-75
2022/10/14 21:28:01;;;;;;;8.77;5.13;;;14.60;99.90;;;;;;10424228;28;20243;-76
2022/10/14 21:33:02;;;;;;;4.70;4.07;;;14.60;99.90;;;;;;10413409;28;20230;-78
2022/10/14 21:38:03;;;;;;;5.93;4.40;;;14.50;99.90;;;;;;10393086;28;20311;-75
2022/10/14 21:43:04;;;;;;;4.97;4.00;;;14.50;99.90;;;;;;10391409;28;20641;-74
2022/10/14 21:48:05;;;;;;;4.67;3.97;;;14.40;99.90;;;;;;10385465;28;20294;-74
2022/10/14 21:53:07;;;;;;;3.83;3.40;;;14.40;99.90;;;;;;10387275;28;20246;-75
2022/10/14 21:58:07;;;;;;;3.93;3.20;;;14.40;99.90;;;;;;10398300;28;20223;-74
2022/10/14 22:03:08;;;;;;;3.43;3.13;;;14.40;99.90;;;;;;10390259;28;20258;-75
2022/10/14 22:08:09;;;;;;;6.27;3.40;;;14.40;99.90;;;;;;10398680;28;20226;-74
2022/10/14 22:13:09;;;;;;;3.97;3.57;;;14.40;99.90;;;;;;10401012;28;20250;-75
2022/10/14 22:18:10;;;;;;;3.73;3.43;;;14.40;99.90;;;;;;10391010;28;20224;-74
2022/10/14 22:23:11;;;;;;;4.83;3.00;;;14.40;99.90;;;;;;10391248;28;20240;-75
2022/10/14 22:28:11;;;;;;;2.90;2.50;;;14.40;99.90;;;;;;10395525;28;20606;-74
2022/10/14 22:33:12;;;;;;;3.13;2.90;;;14.40;99.90;;;;;;10386545;28;20238;-74
2022/10/14 22:38:14;;;;;;;3.50;2.60;;;14.40;99.90;;;;;;10395321;28;20220;-75
2022/10/14 22:43:14;;;;;;;3.37;3.17;;;14.40;99.90;;;;;;10395498;28;20223;-75
2022/10/14 22:48:19;;;;;;;4.23;3.50;;;14.40;99.90;;;;;;10383655;28;20227;-76
2022/10/14 22:53:20;;;;;;;3.73;3.43;;;14.40;99.90;;;;;;10394448;28;20236;-76
2022/10/14 22:58:20;;;;;;;3.80;3.50;;;14.50;99.90;;;;;;10391216;28;20238;-74
2022/10/14 23:03:21;;;;;;;4.23;3.40;;;14.40;99.90;;;;;;10386813;28;20228;-73
2022/10/14 23:08:22;;;;;;;3.80;3.50;;;14.50;99.90;;;;;;10392095;28;20243;-74
2022/10/14 23:13:23;;;;;;;7.57;3.60;;;14.50;99.90;;;;;;10385787;28;20315;-75
2022/10/14 23:18:24;;;;;;;4.20;3.80;;;14.50;99.90;;;;;;10403215;28;20227;-75
2022/10/14 23:23:25;;;;;;;5.70;4.27;;;14.40;99.90;;;;;;10399481;28;20261;-74
2022/10/14 23:28:25;;;;;;;6.10;4.80;;;14.50;99.90;;;;;;10387645;28;20274;-76
2022/10/14 23:33:26;;;;;;;5.90;4.60;;;14.50;99.90;;;;;;10392373;28;20805;-75
2022/10/14 23:38:27;;;;;;;5.10;4.57;;;14.50;99.90;;;;;;10400754;28;20235;-76
2022/10/14 23:43:27;;;;;;;5.13;4.60;;;14.50;99.90;;;;;;10394109;28;20233;-75
2022/10/14 23:48:29;;;;;;;6.10;4.77;;;14.50;99.90;;;;;;10390436;28;20710;-75
2022/10/14 23:53:29;;;;;;;6.00;4.80;;;14.50;99.90;;;;;;10395129;28;20876;-75
2022/10/14 23:58:30;;;;;;;5.53;4.97;;;14.50;99.90;;;;;;10392403;28;20228;-75
